Round Prairie, North Dakota
Current Conditions -  °F | °C
As of 2:52 PM on Friday 24 Oct 2014 (Local Time) from KISN Reporting Station
Clear Clear  
Wind Chill: 62°   Ceiling: Unl
Heat Index: 62°   Visibility: 10mi
Dew Point: 30°   Wind: 24mph
Humidity: 30%   Direction: 280°W
Pressure: 29.92"   Gusts: 32mph
Location:  48.3082°N, 103.697°W
Report Text: KISN 241952Z AUTO 28021G28KT 10SM CLR 17/M01 A2992 RMK AO2 PK WND 29034/1916 SLP136 T01671011
Loading
Personal Weather Stations






























Interactive Weather Map
Tropical Storm Tracking
New forecast layout! Learn more

10-Day Weather Forecast

Advertisements
Track Severe Weather on mobile